createdAt,value
2023-11-09T00:01:56.537Z,2.78
2023-11-09T00:04:24.969Z,2.40
2023-11-09T00:06:53.422Z,2.50
2023-11-09T00:09:23.560Z,2.72
2023-11-09T00:11:51.893Z,2.55
2023-11-09T00:14:20.332Z,2.15
2023-11-09T00:16:48.738Z,2.33
2023-11-09T00:19:17.337Z,2.47
2023-11-09T00:21:45.809Z,2.53
2023-11-09T00:24:14.262Z,2.50
2023-11-09T00:26:46.725Z,2.65
2023-11-09T00:29:15.163Z,2.45
2023-11-09T00:31:43.948Z,2.30
2023-11-09T00:34:12.446Z,2.40
2023-11-09T00:36:40.856Z,2.10
2023-11-09T00:39:13.159Z,2.20
2023-11-09T00:41:41.613Z,2.20
2023-11-09T00:44:12.749Z,2.20
2023-11-09T00:46:41.501Z,2.10
2023-11-09T00:49:09.837Z,2.53
2023-11-09T00:51:38.193Z,2.20
2023-11-09T00:54:06.751Z,2.25
2023-11-09T00:56:35.093Z,2.40
2023-11-09T00:59:04.459Z,2.25
2023-11-09T01:01:34.157Z,2.38
2023-11-09T01:04:02.643Z,2.03
2023-11-09T01:06:31.288Z,2.65
2023-11-09T01:08:59.973Z,2.53
2023-11-09T01:11:28.547Z,2.33
2023-11-09T01:13:58.638Z,2.92
2023-11-09T01:16:27.122Z,2.45
2023-11-09T01:18:57.203Z,2.45
2023-11-09T01:21:25.645Z,2.25
2023-11-09T01:23:53.986Z,2.35
2023-11-09T01:26:22.344Z,2.50
2023-11-09T01:28:50.769Z,2.30
2023-11-09T01:31:19.209Z,2.50
2023-11-09T01:33:47.599Z,2.10
2023-11-09T01:36:17.755Z,2.50
2023-11-09T01:38:46.088Z,2.30
2023-11-09T01:41:14.810Z,2.05
2023-11-09T01:43:43.268Z,2.03
2023-11-09T01:46:12.584Z,2.20
2023-11-09T01:48:40.967Z,2.20
2023-11-09T01:51:09.335Z,2.72
2023-11-09T01:53:39.060Z,2.45
2023-11-09T01:56:07.557Z,2.20
2023-11-09T01:58:36.441Z,2.70
2023-11-09T02:01:05.320Z,2.88
2023-11-09T02:03:35.784Z,2.30
2023-11-09T02:06:04.475Z,2.17
2023-11-09T02:08:32.876Z,2.15
2023-11-09T02:11:02.633Z,2.45
2023-11-09T02:13:31.151Z,2.28
2023-11-09T02:15:59.609Z,2.33
2023-11-09T02:18:28.468Z,2.40
2023-11-09T02:20:56.855Z,2.47
2023-11-09T02:23:25.851Z,2.60
2023-11-09T02:25:56.011Z,2.17
2023-11-09T02:28:24.402Z,2.20
2023-11-09T02:30:52.805Z,2.30
2023-11-09T02:33:21.222Z,2.20
2023-11-09T02:35:49.702Z,2.10
2023-11-09T02:38:18.034Z,2.40
2023-11-09T02:40:46.473Z,2.60
2023-11-09T02:43:16.948Z,2.25
2023-11-09T02:45:46.366Z,2.30
2023-11-09T02:48:14.742Z,2.38
2023-11-09T02:50:43.111Z,2.33
2023-11-09T02:53:11.758Z,2.08
2023-11-09T02:55:40.412Z,2.47
2023-11-09T02:58:08.767Z,2.30
2023-11-09T03:00:38.479Z,2.10
2023-11-09T03:03:06.807Z,2.33
2023-11-09T03:05:35.279Z,2.50
2023-11-09T03:08:03.761Z,2.15
2023-11-09T03:10:32.125Z,2.47
2023-11-09T03:13:01.595Z,2.20
2023-11-09T03:15:29.992Z,2.00
2023-11-09T03:18:00.113Z,2.17
2023-11-09T03:20:28.494Z,2.25
2023-11-09T03:22:56.817Z,2.35
2023-11-09T03:25:25.191Z,2.25
2023-11-09T03:27:53.515Z,2.13
2023-11-09T03:30:21.850Z,2.28
2023-11-09T03:32:50.307Z,2.33
2023-11-09T03:35:20.224Z,2.22
2023-11-09T03:37:48.702Z,2.30
2023-11-09T03:40:17.067Z,2.25
2023-11-09T03:42:46.176Z,2.20
2023-11-09T03:45:15.060Z,2.13
2023-11-09T03:47:43.559Z,2.50
2023-11-09T03:50:13.926Z,2.20
2023-11-09T03:52:43.766Z,2.28
2023-11-09T03:55:13.205Z,2.40
2023-11-09T03:57:41.653Z,2.63
2023-11-09T04:00:12.580Z,2.03
2023-11-09T04:02:41.745Z,2.60
2023-11-09T04:05:11.027Z,2.30
2023-11-09T04:07:41.765Z,2.28
2023-11-09T04:10:13.638Z,2.40
2023-11-09T04:12:42.040Z,2.30
2023-11-09T04:15:12.018Z,2.67
2023-11-09T04:17:40.492Z,2.20
2023-11-09T04:20:09.428Z,2.58
2023-11-09T04:22:37.845Z,2.40
2023-11-09T04:25:07.586Z,2.22
2023-11-09T04:27:38.255Z,2.47
2023-11-09T04:30:10.355Z,2.65
2023-11-09T04:32:40.486Z,2.92
2023-11-09T04:35:09.561Z,2.50
2023-11-09T04:37:39.987Z,2.33
2023-11-09T04:40:15.640Z,2.42
2023-11-09T04:42:45.463Z,2.70
2023-11-09T04:45:14.782Z,2.33
2023-11-09T04:47:46.928Z,2.67
2023-11-09T04:50:16.960Z,2.58
2023-11-09T04:52:53.322Z,2.45
2023-11-09T04:55:33.124Z,2.42
2023-11-09T04:58:22.723Z,2.10
2023-11-09T05:01:08.767Z,2.63
2023-11-09T05:03:54.912Z,2.33
2023-11-09T05:06:49.558Z,2.17
2023-11-09T05:09:19.444Z,2.73
2023-11-09T05:11:47.929Z,2.45
2023-11-09T05:14:17.747Z,2.25
2023-11-09T05:16:46.491Z,2.70
2023-11-09T05:19:15.425Z,2.17
2023-11-09T05:21:43.830Z,2.38
2023-11-09T05:24:12.414Z,2.72
2023-11-09T05:26:40.822Z,2.80
2023-11-09T05:29:10.824Z,2.30
2023-11-09T05:31:43.920Z,2.58
2023-11-09T05:34:12.401Z,2.97
2023-11-09T05:36:40.843Z,2.47
2023-11-09T05:39:11.579Z,2.50
2023-11-09T05:41:40.610Z,2.33
2023-11-09T05:44:09.368Z,2.47
2023-11-09T05:46:39.252Z,2.30
2023-11-09T05:49:09.123Z,2.70
2023-11-09T05:51:40.831Z,2.53
2023-11-09T05:54:09.828Z,2.45
2023-11-09T05:56:38.286Z,2.47
2023-11-09T05:59:06.859Z,2.88
2023-11-09T06:01:36.904Z,2.30
2023-11-09T06:04:05.476Z,2.50
2023-11-09T06:06:35.326Z,2.63
2023-11-09T06:09:07.450Z,2.80
2023-11-09T06:11:36.806Z,2.40
2023-11-09T06:14:06.225Z,2.70
2023-11-09T06:16:35.273Z,2.80
2023-11-09T06:19:04.396Z,2.80
2023-11-09T06:21:33.466Z,2.33
2023-11-09T06:24:03.686Z,2.85
2023-11-09T06:26:32.157Z,2.60
2023-11-09T06:29:00.638Z,2.85
2023-11-09T06:31:29.688Z,2.45
2023-11-09T06:33:58.127Z,2.50
2023-11-09T06:36:28.362Z,2.40
2023-11-09T06:38:56.894Z,2.45
2023-11-09T06:41:29.114Z,2.22
2023-11-09T06:43:57.660Z,2.25
2023-11-09T06:46:28.072Z,2.72
2023-11-09T06:48:56.610Z,2.25
2023-11-09T06:51:25.149Z,2.40
2023-11-09T06:53:54.297Z,2.80
2023-11-09T06:56:23.349Z,2.42
2023-11-09T06:58:54.993Z,2.72
2023-11-09T07:01:23.642Z,2.70
2023-11-09T07:03:52.521Z,2.70
2023-11-09T07:06:21.409Z,2.78
2023-11-09T07:08:50.608Z,2.15
2023-11-09T07:11:19.092Z,2.42
2023-11-09T07:13:47.484Z,2.75
2023-11-09T07:16:17.786Z,2.63
2023-11-09T07:18:47.199Z,2.58
2023-11-09T07:21:15.683Z,2.45
2023-11-09T07:23:46.744Z,2.70
2023-11-09T07:26:15.181Z,2.58
2023-11-09T07:28:44.151Z,2.60
2023-11-09T07:31:13.450Z,2.30
2023-11-09T07:33:45.689Z,2.47
2023-11-09T07:36:14.222Z,2.70
2023-11-09T07:38:42.718Z,2.17
2023-11-09T07:41:11.169Z,2.80
2023-11-09T07:43:39.771Z,2.30
2023-11-09T07:46:08.770Z,2.47
2023-11-09T07:48:37.327Z,2.40
2023-11-09T07:51:08.274Z,2.85
2023-11-09T07:53:36.905Z,2.47
2023-11-09T07:56:05.507Z,2.50
2023-11-09T07:58:33.947Z,2.47
2023-11-09T08:01:02.599Z,2.72
2023-11-09T08:03:31.021Z,2.50
2023-11-09T08:06:00.997Z,2.55
2023-11-09T08:08:31.767Z,2.80
2023-11-09T08:11:00.313Z,2.38
2023-11-09T08:13:29.639Z,2.45
2023-11-09T08:16:00.631Z,2.30
2023-11-09T08:18:29.937Z,2.38
2023-11-09T08:20:58.303Z,2.40
2023-11-09T08:23:26.640Z,2.53
2023-11-09T08:25:56.396Z,2.42
2023-11-09T08:28:25.438Z,2.67
2023-11-09T08:30:53.765Z,2.42
2023-11-09T08:33:23.399Z,2.50
2023-11-09T08:35:54.274Z,2.85
2023-11-09T08:38:23.223Z,2.88
2023-11-09T08:40:51.964Z,2.30
2023-11-09T08:43:21.852Z,2.67
2023-11-09T08:45:50.242Z,2.63
2023-11-09T08:48:19.780Z,2.60
2023-11-09T08:50:48.353Z,2.63
2023-11-09T08:53:16.692Z,2.28
2023-11-09T08:55:45.453Z,2.53
2023-11-09T08:58:13.905Z,2.03
2023-11-09T09:00:43.952Z,2.22
2023-11-09T09:03:12.920Z,2.65
2023-11-09T09:05:42.718Z,2.55
2023-11-09T09:08:11.167Z,2.50
2023-11-09T09:10:39.734Z,2.63
2023-11-09T09:13:08.739Z,2.67
2023-11-09T09:15:37.213Z,2.30
2023-11-09T09:18:10.886Z,2.95
2023-11-09T09:20:40.483Z,2.38
2023-11-09T09:23:10.587Z,2.60
2023-11-09T09:25:39.939Z,2.60
2023-11-09T09:28:10.609Z,2.47
2023-11-09T09:30:39.378Z,2.33
2023-11-09T09:33:10.094Z,2.30
2023-11-09T09:35:45.190Z,2.53
2023-11-09T09:38:17.449Z,2.75
2023-11-09T09:40:51.245Z,2.80
2023-11-09T09:43:23.669Z,2.60
2023-11-09T09:45:58.206Z,2.28
2023-11-09T09:48:29.483Z,2.50
2023-11-09T09:50:59.560Z,2.40
2023-11-09T09:53:28.401Z,2.72
2023-11-09T09:55:58.065Z,3.40
2023-11-09T09:58:26.589Z,2.80
2023-11-09T10:00:55.752Z,2.30
2023-11-09T10:03:25.017Z,2.50
2023-11-09T10:05:55.430Z,2.10
2023-11-09T10:08:25.218Z,2.10
2023-11-09T10:10:56.588Z,2.42
2023-11-09T10:13:28.706Z,2.20
2023-11-09T10:15:57.893Z,2.22
2023-11-09T10:18:29.456Z,2.10
2023-11-09T10:21:00.342Z,2.13
2023-11-09T10:23:29.126Z,1.90
2023-11-09T10:25:58.591Z,2.03
2023-11-09T10:28:34.248Z,2.00
2023-11-09T10:31:03.272Z,2.00
2023-11-09T10:33:34.144Z,1.80
2023-11-09T10:36:06.112Z,2.00
2023-11-09T10:38:35.219Z,1.90
2023-11-09T10:41:16.219Z,1.90
2023-11-09T10:43:56.396Z,1.95
2023-11-09T10:46:24.853Z,1.85
2023-11-09T10:48:53.855Z,1.80
2023-11-09T10:51:25.979Z,1.73
2023-11-09T10:53:55.518Z,1.80
2023-11-09T10:56:28.134Z,1.98
2023-11-09T10:58:57.410Z,1.90
2023-11-09T11:01:30.388Z,2.13
2023-11-09T11:04:00.659Z,1.83
2023-11-09T11:06:33.722Z,1.90
2023-11-09T11:09:09.587Z,1.90
2023-11-09T11:11:39.340Z,1.60
2023-11-09T11:14:10.730Z,1.77
2023-11-09T11:16:47.352Z,1.80
2023-11-09T11:19:24.303Z,1.80
2023-11-09T11:22:05.314Z,1.73
2023-11-09T11:24:49.096Z,1.90
2023-11-09T11:27:21.451Z,1.67
2023-11-09T11:29:51.132Z,1.65
2023-11-09T11:32:24.125Z,1.85
2023-11-09T11:34:55.830Z,1.90
2023-11-09T11:37:27.687Z,1.85
2023-11-09T11:39:56.254Z,2.00
2023-11-09T11:42:29.625Z,1.60
2023-11-09T11:45:00.365Z,1.50
2023-11-09T11:47:30.977Z,1.80
2023-11-09T11:50:02.548Z,1.75
2023-11-09T11:52:34.009Z,1.60
2023-11-09T11:55:04.895Z,1.70
2023-11-09T11:57:35.635Z,1.60
2023-11-09T12:00:09.877Z,1.70
2023-11-09T12:02:40.211Z,1.70
2023-11-09T12:05:10.681Z,2.47
2023-11-09T12:07:41.703Z,1.80
2023-11-09T12:10:17.760Z,1.40
2023-11-09T12:12:56.206Z,1.50
2023-11-09T12:15:29.500Z,1.60
2023-11-09T12:17:58.131Z,1.80
2023-11-09T12:20:27.033Z,1.60
2023-11-09T12:22:56.806Z,1.60
2023-11-09T12:25:29.765Z,1.60
2023-11-09T12:27:58.518Z,1.52
2023-11-09T12:30:27.035Z,1.60
2023-11-09T12:32:55.785Z,1.58
2023-11-09T12:35:24.156Z,1.70
2023-11-09T12:38:02.635Z,1.90
2023-11-09T12:40:32.508Z,1.75
2023-11-09T12:43:02.170Z,1.95
2023-11-09T12:45:30.545Z,1.70
2023-11-09T12:47:58.974Z,1.88
2023-11-09T12:50:34.595Z,1.60
2023-11-09T12:53:04.597Z,1.67
2023-11-09T12:55:33.483Z,1.70
2023-11-09T12:58:02.547Z,1.60
2023-11-09T13:00:31.096Z,1.50
2023-11-09T13:03:03.305Z,1.60
2023-11-09T13:05:34.536Z,1.70
2023-11-09T13:08:09.847Z,1.77
2023-11-09T13:10:41.396Z,1.70
2023-11-09T13:13:22.645Z,1.70
2023-11-09T13:15:51.331Z,1.60
2023-11-09T13:18:27.615Z,1.60
2023-11-09T13:20:56.688Z,1.70
2023-11-09T13:23:34.233Z,1.75
2023-11-09T13:26:06.810Z,1.60
2023-11-09T13:28:35.517Z,1.50
2023-11-09T13:31:08.138Z,1.60
2023-11-09T13:33:37.897Z,1.90
2023-11-09T13:36:10.374Z,1.90
2023-11-09T13:38:52.470Z,1.60
2023-11-09T13:41:23.382Z,1.50
2023-11-09T13:44:07.508Z,1.50
2023-11-09T13:46:42.179Z,1.60
2023-11-09T13:49:20.348Z,1.80
2023-11-09T13:52:03.991Z,1.77
2023-11-09T13:54:48.082Z,1.60
2023-11-09T13:57:20.059Z,1.80
2023-11-09T13:59:56.534Z,1.70
2023-11-09T14:02:28.898Z,1.55
2023-11-09T14:05:05.798Z,1.80
2023-11-09T14:07:36.462Z,1.63
2023-11-09T14:10:09.551Z,1.75
2023-11-09T14:12:50.894Z,1.73
2023-11-09T14:15:26.706Z,1.73
2023-11-09T14:17:56.382Z,1.60
2023-11-09T14:20:42.935Z,1.70
2023-11-09T14:23:11.455Z,1.52
2023-11-09T14:25:43.320Z,1.70
2023-11-09T14:28:14.160Z,1.60
2023-11-09T14:30:46.825Z,1.70
2023-11-09T14:33:19.967Z,1.65
2023-11-09T14:35:48.395Z,1.50
2023-11-09T14:38:19.759Z,1.77
2023-11-09T14:40:52.252Z,1.70
2023-11-09T14:43:21.291Z,2.00
2023-11-09T14:45:50.472Z,1.70
2023-11-09T14:48:23.869Z,1.92
2023-11-09T14:50:54.785Z,2.05
2023-11-09T14:53:33.655Z,2.00
2023-11-09T14:56:07.781Z,2.00
2023-11-09T14:58:36.450Z,2.00
2023-11-09T15:01:05.704Z,1.70
2023-11-09T15:03:35.757Z,1.90
2023-11-09T15:06:11.716Z,1.95
2023-11-09T15:08:41.557Z,1.90
2023-11-09T15:11:15.125Z,1.70
2023-11-09T15:13:46.019Z,1.90
2023-11-09T15:16:20.491Z,1.80
2023-11-09T15:18:51.880Z,1.90
2023-11-09T15:21:22.686Z,1.83
2023-11-09T15:23:51.366Z,1.92
2023-11-09T15:26:21.143Z,2.10
2023-11-09T15:28:50.272Z,1.85
2023-11-09T15:31:18.878Z,1.98
2023-11-09T15:33:47.636Z,1.98
2023-11-09T15:36:16.152Z,1.90
2023-11-09T15:38:47.404Z,1.90
2023-11-09T15:41:21.763Z,1.95
2023-11-09T15:43:55.226Z,1.90
2023-11-09T15:46:24.410Z,1.88
2023-11-09T15:48:54.646Z,1.90
2023-11-09T15:51:36.186Z,1.80
2023-11-09T15:54:04.619Z,1.90
2023-11-09T15:56:33.047Z,1.90
2023-11-09T15:59:02.926Z,2.10
2023-11-09T16:01:31.484Z,1.90
2023-11-09T16:04:00.782Z,1.90
2023-11-09T16:06:29.313Z,1.90
2023-11-09T16:08:57.727Z,1.90
2023-11-09T16:11:26.077Z,1.80
2023-11-09T16:13:57.027Z,1.98
2023-11-09T16:16:32.764Z,1.90
2023-11-09T16:19:06.137Z,2.05
2023-11-09T16:21:36.316Z,1.80
2023-11-09T16:24:12.614Z,1.88
2023-11-09T16:26:43.743Z,2.05
2023-11-09T16:29:14.365Z,1.85
2023-11-09T16:31:44.439Z,1.77
2023-11-09T16:34:14.154Z,2.08
2023-11-09T16:36:42.574Z,1.90
2023-11-09T16:39:16.092Z,1.88
2023-11-09T16:41:45.670Z,2.03
2023-11-09T16:44:15.522Z,2.10
2023-11-09T16:46:45.364Z,1.85
2023-11-09T16:49:13.756Z,2.13
2023-11-09T16:51:42.090Z,2.17
2023-11-09T16:54:10.933Z,2.40
2023-11-09T16:56:39.276Z,2.20
2023-11-09T16:59:07.627Z,2.17
2023-11-09T17:01:37.027Z,2.30
2023-11-09T17:04:06.992Z,2.20
2023-11-09T17:06:35.358Z,2.05
2023-11-09T17:09:04.500Z,2.08
2023-11-09T17:11:32.904Z,2.38
2023-11-09T17:14:01.290Z,1.90
2023-11-09T17:16:29.998Z,2.22
2023-11-09T17:19:00.541Z,2.10
2023-11-09T17:21:30.370Z,2.28
2023-11-09T17:23:58.701Z,2.20
2023-11-09T17:26:28.807Z,2.20
2023-11-09T17:28:57.152Z,2.35
2023-11-09T17:31:25.489Z,2.55
2023-11-09T17:33:54.050Z,2.28
2023-11-09T17:36:22.554Z,2.15
2023-11-09T17:38:52.530Z,2.03
2023-11-09T17:41:21.071Z,2.22
2023-11-09T17:43:49.422Z,2.10
2023-11-09T17:46:17.881Z,2.33
2023-11-09T17:48:46.262Z,2.15
2023-11-09T17:51:14.616Z,2.38
2023-11-09T17:53:43.323Z,2.10
2023-11-09T17:56:13.633Z,2.00
2023-11-09T17:58:43.303Z,2.10
2023-11-09T18:01:12.767Z,2.03
2023-11-09T18:03:41.338Z,2.00
2023-11-09T18:06:13.017Z,2.00
2023-11-09T18:08:41.540Z,2.00
2023-11-09T18:11:09.886Z,2.13
2023-11-09T18:13:39.651Z,2.30
2023-11-09T18:16:08.476Z,2.40
2023-11-09T18:18:36.845Z,2.17
2023-11-09T18:21:05.327Z,2.00
2023-11-09T18:23:33.677Z,2.42
2023-11-09T18:26:02.096Z,2.20
2023-11-09T18:28:30.494Z,2.00
2023-11-09T18:31:00.217Z,1.95
2023-11-09T18:33:28.947Z,1.95
2023-11-09T18:35:57.321Z,2.20
2023-11-09T18:38:26.095Z,1.95
2023-11-09T18:40:54.963Z,2.10
2023-11-09T18:43:23.371Z,2.40
2023-11-09T18:45:52.239Z,2.25
2023-11-09T18:48:22.037Z,2.15
2023-11-09T18:53:21.699Z,2.30
2023-11-09T18:55:50.077Z,2.28
2023-11-09T18:58:18.468Z,2.20
2023-11-09T19:00:46.793Z,2.10
2023-11-09T19:05:47.901Z,2.30
2023-11-09T19:08:20.939Z,1.98
2023-11-09T19:10:50.698Z,2.13
2023-11-09T19:13:23.466Z,2.38
2023-11-09T19:15:52.130Z,2.30
2023-11-09T19:18:20.493Z,2.15
2023-11-09T19:25:54.056Z,2.13
2023-11-09T19:28:25.765Z,3.10
2023-11-09T19:30:54.898Z,2.28
2023-11-09T19:33:23.485Z,2.17
2023-11-09T19:35:53.282Z,2.08
2023-11-09T19:38:21.763Z,2.40
2023-11-09T19:40:51.360Z,2.20
2023-11-09T19:43:19.990Z,2.20
2023-11-09T19:45:48.527Z,2.15
2023-11-09T19:48:17.072Z,2.13
2023-11-09T19:50:46.798Z,2.08
2023-11-09T19:53:16.643Z,2.10
2023-11-09T19:55:45.887Z,2.10
2023-11-09T19:58:14.416Z,2.00
2023-11-09T20:00:45.253Z,2.30
2023-11-09T20:03:14.032Z,2.00
2023-11-09T20:05:42.527Z,2.13
2023-11-09T20:08:11.110Z,2.20
2023-11-09T20:10:40.939Z,1.92
2023-11-09T20:13:09.826Z,2.13
2023-11-09T20:15:38.582Z,1.95
2023-11-09T20:18:07.248Z,1.98
2023-11-09T20:20:35.688Z,1.92
2023-11-09T20:23:04.800Z,1.88
2023-11-09T20:25:33.230Z,2.13
2023-11-09T20:28:04.022Z,1.88
2023-11-09T20:30:32.465Z,1.88
2023-11-09T20:33:02.318Z,2.08
2023-11-09T20:35:30.807Z,2.10
2023-11-09T20:38:02.210Z,1.85
2023-11-09T20:40:31.255Z,1.90
2023-11-09T20:42:59.630Z,1.98
2023-11-09T20:45:29.398Z,2.00
2023-11-09T20:47:57.879Z,2.22
2023-11-09T20:50:26.561Z,2.00
2023-11-09T20:52:54.959Z,1.80
2023-11-09T20:55:23.456Z,1.90
2023-11-09T20:57:52.456Z,2.15
2023-11-09T21:00:25.131Z,1.95
2023-11-09T21:02:56.494Z,2.00
2023-11-09T21:05:25.260Z,1.92
2023-11-09T21:07:54.587Z,1.85
2023-11-09T21:10:23.720Z,1.95
2023-11-09T21:12:52.305Z,1.92
2023-11-09T21:15:21.081Z,1.98
2023-11-09T21:17:49.631Z,1.95
2023-11-09T21:20:19.420Z,2.13
2023-11-09T21:22:48.255Z,2.00
2023-11-09T21:25:16.884Z,2.08
2023-11-09T21:27:46.902Z,1.73
2023-11-09T21:30:17.897Z,2.20
2023-11-09T21:32:46.954Z,1.95
2023-11-09T21:35:17.649Z,2.05
2023-11-09T21:37:48.911Z,1.90
2023-11-09T21:40:19.405Z,2.30
2023-11-09T21:42:47.912Z,1.92
2023-11-09T21:45:18.309Z,2.22
2023-11-09T21:47:46.995Z,1.92
2023-11-09T21:50:15.448Z,2.20
2023-11-09T21:52:43.864Z,2.00
2023-11-09T21:55:19.160Z,2.00
2023-11-09T21:57:47.780Z,2.20
2023-11-09T22:00:17.275Z,2.30
2023-11-09T22:02:47.314Z,2.50
2023-11-09T22:05:16.158Z,2.00
2023-11-09T22:07:44.535Z,2.10
2023-11-09T22:10:14.905Z,2.45
2023-11-09T22:12:44.162Z,2.10
2023-11-09T22:15:14.953Z,2.17
2023-11-09T22:17:44.236Z,2.40
2023-11-09T22:20:13.859Z,2.20
2023-11-09T22:22:45.172Z,1.98
2023-11-09T22:25:15.371Z,2.15
2023-11-09T22:27:45.695Z,2.30
2023-11-09T22:30:14.464Z,2.50
2023-11-09T22:32:42.949Z,2.20
2023-11-09T22:35:11.818Z,2.35
2023-11-09T22:37:40.226Z,2.40
2023-11-09T22:40:11.919Z,2.08
2023-11-09T22:42:41.996Z,1.90
2023-11-09T22:45:10.899Z,2.15
2023-11-09T22:47:39.470Z,1.80
2023-11-09T22:50:11.266Z,2.05
2023-11-09T22:52:41.988Z,1.90
2023-11-09T22:55:11.054Z,1.95
2023-11-09T22:57:39.627Z,2.20
2023-11-09T23:00:25.441Z,2.20
2023-11-09T23:02:54.911Z,2.40
2023-11-09T23:05:23.421Z,1.95
2023-11-09T23:07:52.088Z,2.03
2023-11-09T23:10:20.492Z,2.13
2023-11-09T23:12:48.822Z,2.00
2023-11-09T23:15:18.683Z,2.20
2023-11-09T23:17:47.693Z,2.10
2023-11-09T23:20:16.637Z,2.13
2023-11-09T23:22:45.564Z,2.15
2023-11-09T23:25:14.470Z,2.10
2023-11-09T23:27:42.857Z,2.10
2023-11-09T23:30:13.429Z,2.10
2023-11-09T23:32:43.313Z,2.00
2023-11-09T23:35:12.087Z,2.22
2023-11-09T23:37:40.477Z,2.15
2023-11-09T23:40:12.044Z,2.38
2023-11-09T23:42:40.574Z,2.30
2023-11-09T23:45:09.431Z,2.20
2023-11-09T23:47:38.344Z,2.28
2023-11-09T23:50:08.871Z,2.40
2023-11-09T23:52:37.211Z,2.15
2023-11-09T23:55:06.060Z,2.05
2023-11-09T23:57:34.581Z,2.10
